Terminal Aerodrome Forecast
Issued by NWS

Home | Current Version | Previous Version | Text Only | Print | Product List | Glossary On
Versions: 1 2 3 4 5 6 7 8 9 10 11 12 13 14
000
FTUS44 KMAF 222300
TAFCNM
TAF
KCNM 222322Z 2300/2324 26014G19KT P6SM SCT200
     FM231600 30015G25KT P6SM SCT200
     FM232000 30021G27KT P6SM FEW200=

USA.gov is the U.S. government's official web portal to all federal, state and local government web resources and services.